Chino Hills, California
Current Conditions -  °F | °C
As of 5:53 AM on Thursday 23 Oct 2014 (Local Time) from KCNO Reporting Station
Haze Haze  
Wind Chill: 56°   Ceiling: Unl
Heat Index: 56°   Visibility: 4mi
Dew Point: 53°   Wind: 0mph
Humidity: 90%   Direction: NA
Pressure: 29.97"   Gusts: NA
Location:  34°N, 117.75°W
Report Text: KCNO 231253Z AUTO 00000KT 4SM BR CLR 13/12 A2997 RMK AO2 SLP145 T01330117
Loading
Personal Weather Stations






























Interactive Weather Map
Tropical Storm Tracking
New forecast layout! Learn more

10-Day Weather Forecast

Advertisements
Track Severe Weather on mobile